createdAt,value
2022-08-22T01:37:34.165Z,12.35
2022-08-22T01:43:15.372Z,13.13
2022-08-22T01:48:08.604Z,13.27
2022-08-22T01:52:22.445Z,13.60
2022-08-22T01:56:42.753Z,14.52
2022-08-22T02:01:24.147Z,14.88
2022-08-22T02:05:37.049Z,14.13
2022-08-22T02:10:27.939Z,15.85
2022-08-22T02:37:35.667Z,14.50
2022-08-22T02:48:36.973Z,14.13
2022-08-22T02:58:26.082Z,15.77
2022-08-22T03:03:02.087Z,14.55
2022-08-22T03:07:13.243Z,15.60
2022-08-22T03:11:40.790Z,16.17
2022-08-22T03:17:02.385Z,15.13
2022-08-22T03:21:28.524Z,15.07
2022-08-22T03:25:41.680Z,16.23
2022-08-22T03:29:48.503Z,14.55
2022-08-22T03:34:22.661Z,16.02
2022-08-22T03:38:29.802Z,13.98
2022-08-22T03:43:18.208Z,13.68
2022-08-22T03:48:23.003Z,14.25
2022-08-22T03:53:18.619Z,13.90
2022-08-22T03:57:50.312Z,13.48
2022-08-22T04:06:57.761Z,13.65
2022-08-22T04:11:33.577Z,14.48
2022-08-22T04:15:59.952Z,13.48
2022-08-22T04:20:24.627Z,13.25
2022-08-22T04:24:52.163Z,12.02
2022-08-22T04:29:01.116Z,10.73
2022-08-22T04:33:08.394Z,11.25
2022-08-22T04:37:18.789Z,10.57
2022-08-22T04:41:24.544Z,10.32
2022-08-22T04:45:31.968Z,10.25
2022-08-22T04:49:43.535Z,9.00
2022-08-22T04:54:14.305Z,10.30
2022-08-22T04:58:38.819Z,8.93
2022-08-22T05:02:59.188Z,9.52
2022-08-22T05:07:16.309Z,9.10
2022-08-22T05:11:26.789Z,8.55
2022-08-22T05:15:32.729Z,9.43
2022-08-22T05:19:42.470Z,9.50
2022-08-22T05:23:51.840Z,10.13
2022-08-22T05:28:12.620Z,9.75
2022-08-22T05:32:21.491Z,9.73
2022-08-22T05:36:32.501Z,10.65
2022-08-22T05:40:39.306Z,9.45
2022-08-22T05:49:25.130Z,10.13
2022-08-22T05:53:45.780Z,10.20
2022-08-22T06:15:56.954Z,10.52
2022-08-22T06:19:58.519Z,10.25
2022-08-22T06:24:10.475Z,9.95
2022-08-22T06:28:16.697Z,10.18
2022-08-22T06:32:59.969Z,10.38
2022-08-22T06:37:38.670Z,10.52
2022-08-22T06:42:02.316Z,9.80
2022-08-22T06:46:36.793Z,10.38
2022-08-22T06:50:44.819Z,9.70
2022-08-22T06:55:03.253Z,10.50
2022-08-22T07:00:05.040Z,8.95
2022-08-22T07:04:28.670Z,9.65
2022-08-22T07:09:05.651Z,9.32
2022-08-22T07:13:20.568Z,9.00
2022-08-22T07:17:41.249Z,9.05
2022-08-22T07:21:51.502Z,9.68
2022-08-22T07:26:12.482Z,9.32
2022-08-22T07:30:15.246Z,9.00
2022-08-22T07:35:03.042Z,10.57
2022-08-22T07:39:50.141Z,9.85
2022-08-22T07:44:17.717Z,7.65
2022-08-22T07:49:05.949Z,9.30
2022-08-22T07:53:15.651Z,9.40
2022-08-22T07:57:35.052Z,9.88
2022-08-22T08:02:15.313Z,9.05
2022-08-22T08:06:17.178Z,8.93
2022-08-22T08:11:04.425Z,8.18
2022-08-22T08:15:32.169Z,6.88
2022-08-22T08:20:04.559Z,7.55
2022-08-22T13:29:42.688Z,5.65
2022-08-22T14:58:10.428Z,5.60
2022-08-22T15:02:19.916Z,5.38
2022-08-22T15:06:35.031Z,4.93
2022-08-22T15:11:42.317Z,5.20
2022-08-22T15:15:59.783Z,6.22
2022-08-22T15:20:27.856Z,6.40
2022-08-22T15:24:39.000Z,5.57
2022-08-22T15:28:53.114Z,5.40
2022-08-22T15:33:12.897Z,8.98
2022-08-22T15:37:32.465Z,7.32
2022-08-22T15:41:46.148Z,5.68
2022-08-22T15:45:46.870Z,6.50
2022-08-22T15:49:55.521Z,7.30
2022-08-22T15:54:24.414Z,6.70
2022-08-22T16:02:35.633Z,5.63
2022-08-22T16:07:44.482Z,6.20
2022-08-22T16:12:17.653Z,6.18
2022-08-22T16:17:16.973Z,7.15
2022-08-22T16:22:12.372Z,6.88
2022-08-22T16:26:21.022Z,7.82
2022-08-22T16:30:44.151Z,5.88
2022-08-22T16:34:52.307Z,5.80
2022-08-22T16:39:03.573Z,7.25
2022-08-22T16:43:29.144Z,6.38
2022-08-22T16:47:58.159Z,6.38
2022-08-22T16:52:37.390Z,6.75
2022-08-22T16:57:14.966Z,7.40
2022-08-22T17:02:00.600Z,6.22
2022-08-22T17:06:33.382Z,6.57
2022-08-22T17:10:53.076Z,7.72
2022-08-22T17:15:05.276Z,6.85
2022-08-22T17:19:28.455Z,7.53
2022-08-22T17:23:53.280Z,7.63
2022-08-22T17:28:30.088Z,8.93
2022-08-22T17:32:51.395Z,7.85
2022-08-22T17:42:30.217Z,7.45
2022-08-22T17:52:36.267Z,4.60
2022-08-22T18:03:39.296Z,4.93
2022-08-22T18:12:54.449Z,5.78
2022-08-22T18:17:25.448Z,5.50
2022-08-22T18:21:58.539Z,4.72
2022-08-22T18:26:48.335Z,4.32
2022-08-22T18:35:53.872Z,4.68
2022-08-22T18:40:20.970Z,5.03
2022-08-22T18:44:34.845Z,4.57
2022-08-22T18:54:16.481Z,4.38
2022-08-22T18:59:28.297Z,4.28
2022-08-22T19:09:30.718Z,3.53
2022-08-22T19:14:30.823Z,6.05
2022-08-22T19:19:04.773Z,4.85
2022-08-22T19:23:51.698Z,4.60
2022-08-22T19:29:19.824Z,3.72
2022-08-22T19:33:49.926Z,4.78
2022-08-22T19:39:42.109Z,4.72
2022-08-22T19:45:15.726Z,4.82
2022-08-22T19:50:10.415Z,4.45
2022-08-22T19:54:53.297Z,4.93
2022-08-22T19:59:35.859Z,4.80
2022-08-22T20:03:57.902Z,5.43
2022-08-22T20:08:22.415Z,4.63
2022-08-22T20:12:41.167Z,5.55
2022-08-22T20:17:22.876Z,5.30
2022-08-22T20:22:05.500Z,5.15
2022-08-22T20:26:25.701Z,4.93
2022-08-22T20:31:04.843Z,5.63
2022-08-22T20:35:29.833Z,6.38
2022-08-22T20:40:03.115Z,5.40
2022-08-22T20:44:53.465Z,4.97
2022-08-22T20:49:53.357Z,5.90
2022-08-22T20:54:26.921Z,4.90
2022-08-22T20:59:11.663Z,4.82
2022-08-22T21:03:49.828Z,4.75
2022-08-22T21:09:08.560Z,5.72
2022-08-22T21:19:37.663Z,5.50
2022-08-22T21:24:47.650Z,5.15
2022-08-22T21:29:41.475Z,5.18
2022-08-22T21:34:15.122Z,5.80
2022-08-22T21:38:28.939Z,5.45
2022-08-22T21:42:48.242Z,6.07
2022-08-22T21:47:03.077Z,5.65
2022-08-22T21:51:35.376Z,4.95
2022-08-22T21:56:16.468Z,4.95
2022-08-22T22:00:55.334Z,5.47
2022-08-22T22:05:33.977Z,5.60
2022-08-22T22:09:54.791Z,4.93
2022-08-22T22:14:19.987Z,5.05
2022-08-22T22:18:44.581Z,6.13
2022-08-22T22:23:01.197Z,5.22
2022-08-22T22:27:18.207Z,5.10
2022-08-22T22:31:27.510Z,6.00
2022-08-22T22:35:44.214Z,6.82
2022-08-22T22:40:28.368Z,7.55
2022-08-22T22:45:22.049Z,6.57
2022-08-22T22:50:39.176Z,5.50
2022-08-22T22:56:09.629Z,6.00
2022-08-22T23:17:30.872Z,5.53
2022-08-22T23:22:50.297Z,6.32
2022-08-22T23:33:01.746Z,7.25
2022-08-22T23:37:27.172Z,7.78
2022-08-22T23:42:17.544Z,8.07
2022-08-22T23:46:38.501Z,7.15
2022-08-22T23:50:52.249Z,7.63
2022-08-22T23:55:19.509Z,7.05
2022-08-22T23:59:37.050Z,7.05
